sensor_id;sensor_type;location;lat;lon;timestamp;P1;durP1;ratioP1;P2;durP2;ratioP2
12554;SDS011;6343;50.868;4.700;2023-02-28T00:00:12;6.13;;;4.30;;
12554;SDS011;6343;50.868;4.700;2023-02-28T00:02:40;5.80;;;4.27;;
12554;SDS011;6343;50.868;4.700;2023-02-28T00:05:07;8.50;;;4.47;;
12554;SDS011;6343;50.868;4.700;2023-02-28T00:07:33;7.17;;;4.70;;
12554;SDS011;6343;50.868;4.700;2023-02-28T00:09:59;5.90;;;4.00;;
12554;SDS011;6343;50.868;4.700;2023-02-28T00:12:26;7.30;;;4.20;;
12554;SDS011;6343;50.868;4.700;2023-02-28T00:14:52;6.90;;;4.07;;
12554;SDS011;6343;50.868;4.700;2023-02-28T00:17:18;7.53;;;4.40;;
12554;SDS011;6343;50.868;4.700;2023-02-28T00:19:47;7.43;;;4.20;;
12554;SDS011;6343;50.868;4.700;2023-02-28T00:22:13;10.83;;;4.47;;
12554;SDS011;6343;50.868;4.700;2023-02-28T00:24:39;14.07;;;4.40;;
12554;SDS011;6343;50.868;4.700;2023-02-28T00:27:05;6.17;;;4.20;;
12554;SDS011;6343;50.868;4.700;2023-02-28T00:29:32;5.27;;;3.90;;
12554;SDS011;6343;50.868;4.700;2023-02-28T00:31:58;7.20;;;4.47;;
12554;SDS011;6343;50.868;4.700;2023-02-28T00:34:24;4.63;;;3.50;;
12554;SDS011;6343;50.868;4.700;2023-02-28T00:36:50;5.80;;;3.83;;
12554;SDS011;6343;50.868;4.700;2023-02-28T00:39:16;8.90;;;3.97;;
12554;SDS011;6343;50.868;4.700;2023-02-28T00:41:42;10.70;;;4.50;;
12554;SDS011;6343;50.868;4.700;2023-02-28T00:44:08;7.60;;;4.10;;
12554;SDS011;6343;50.868;4.700;2023-02-28T00:46:34;7.63;;;3.90;;
12554;SDS011;6343;50.868;4.700;2023-02-28T00:49:00;10.37;;;4.53;;
12554;SDS011;6343;50.868;4.700;2023-02-28T00:51:26;6.33;;;4.13;;
12554;SDS011;6343;50.868;4.700;2023-02-28T00:53:53;6.40;;;4.50;;
12554;SDS011;6343;50.868;4.700;2023-02-28T00:56:19;6.17;;;4.10;;
12554;SDS011;6343;50.868;4.700;2023-02-28T00:58:45;6.53;;;3.80;;
12554;SDS011;6343;50.868;4.700;2023-02-28T01:01:11;9.43;;;4.40;;
12554;SDS011;6343;50.868;4.700;2023-02-28T01:03:37;7.37;;;4.33;;
12554;SDS011;6343;50.868;4.700;2023-02-28T01:06:04;6.40;;;4.23;;
12554;SDS011;6343;50.868;4.700;2023-02-28T01:08:30;7.10;;;4.30;;
12554;SDS011;6343;50.868;4.700;2023-02-28T01:10:56;11.97;;;4.00;;
12554;SDS011;6343;50.868;4.700;2023-02-28T01:13:22;8.43;;;4.13;;
12554;SDS011;6343;50.868;4.700;2023-02-28T01:15:50;6.87;;;4.20;;
12554;SDS011;6343;50.868;4.700;2023-02-28T01:18:17;11.03;;;4.10;;
12554;SDS011;6343;50.868;4.700;2023-02-28T01:20:43;6.23;;;3.80;;
12554;SDS011;6343;50.868;4.700;2023-02-28T01:23:11;10.33;;;4.60;;
12554;SDS011;6343;50.868;4.700;2023-02-28T01:25:37;7.70;;;4.00;;
12554;SDS011;6343;50.868;4.700;2023-02-28T01:28:03;7.70;;;4.33;;
12554;SDS011;6343;50.868;4.700;2023-02-28T01:30:30;7.47;;;4.20;;
12554;SDS011;6343;50.868;4.700;2023-02-28T01:32:57;6.03;;;4.27;;
12554;SDS011;6343;50.868;4.700;2023-02-28T01:35:23;5.27;;;4.00;;
12554;SDS011;6343;50.868;4.700;2023-02-28T01:37:49;9.20;;;4.30;;
12554;SDS011;6343;50.868;4.700;2023-02-28T01:40:15;5.73;;;4.00;;
12554;SDS011;6343;50.868;4.700;2023-02-28T01:42:41;7.60;;;4.50;;
12554;SDS011;6343;50.868;4.700;2023-02-28T01:47:38;8.20;;;4.37;;
12554;SDS011;6343;50.868;4.700;2023-02-28T01:50:10;8.83;;;4.13;;
12554;SDS011;6343;50.868;4.700;2023-02-28T01:52:38;7.07;;;5.37;;
12554;SDS011;6343;50.868;4.700;2023-02-28T01:55:04;8.73;;;4.73;;
12554;SDS011;6343;50.868;4.700;2023-02-28T01:57:33;6.87;;;4.63;;
12554;SDS011;6343;50.868;4.700;2023-02-28T02:00:05;6.03;;;3.87;;
12554;SDS011;6343;50.868;4.700;2023-02-28T02:02:32;6.73;;;4.80;;
12554;SDS011;6343;50.868;4.700;2023-02-28T02:05:04;6.77;;;4.90;;
12554;SDS011;6343;50.868;4.700;2023-02-28T02:07:32;6.47;;;4.20;;
12554;SDS011;6343;50.868;4.700;2023-02-28T02:10:00;7.03;;;4.47;;
12554;SDS011;6343;50.868;4.700;2023-02-28T02:15:17;9.03;;;4.97;;
12554;SDS011;6343;50.868;4.700;2023-02-28T02:17:48;8.90;;;4.97;;
12554;SDS011;6343;50.868;4.700;2023-02-28T02:23:28;6.57;;;4.60;;
12554;SDS011;6343;50.868;4.700;2023-02-28T02:39:17;7.17;;;4.73;;
12554;SDS011;6343;50.868;4.700;2023-02-28T02:41:40;9.60;;;4.63;;
12554;SDS011;6343;50.868;4.700;2023-02-28T02:44:24;15.70;;;4.87;;
12554;SDS011;6343;50.868;4.700;2023-02-28T02:46:54;6.77;;;4.50;;
12554;SDS011;6343;50.868;4.700;2023-02-28T02:49:22;8.83;;;5.30;;
12554;SDS011;6343;50.868;4.700;2023-02-28T02:51:50;10.00;;;5.13;;
12554;SDS011;6343;50.868;4.700;2023-02-28T02:54:19;8.73;;;5.00;;
12554;SDS011;6343;50.868;4.700;2023-02-28T02:56:47;6.80;;;4.33;;
12554;SDS011;6343;50.868;4.700;2023-02-28T02:59:15;8.03;;;4.60;;
12554;SDS011;6343;50.868;4.700;2023-02-28T03:01:46;6.97;;;5.13;;
12554;SDS011;6343;50.868;4.700;2023-02-28T03:04:18;11.70;;;5.10;;
12554;SDS011;6343;50.868;4.700;2023-02-28T03:06:45;9.10;;;4.90;;
12554;SDS011;6343;50.868;4.700;2023-02-28T03:09:11;7.23;;;4.60;;
12554;SDS011;6343;50.868;4.700;2023-02-28T03:11:37;7.23;;;4.53;;
12554;SDS011;6343;50.868;4.700;2023-02-28T03:24:50;8.57;;;5.30;;
12554;SDS011;6343;50.868;4.700;2023-02-28T03:27:38;9.47;;;5.37;;
12554;SDS011;6343;50.868;4.700;2023-02-28T03:33:27;11.47;;;5.37;;
12554;SDS011;6343;50.868;4.700;2023-02-28T03:35:59;10.23;;;5.70;;
12554;SDS011;6343;50.868;4.700;2023-02-28T03:40:55;10.20;;;5.37;;
12554;SDS011;6343;50.868;4.700;2023-02-28T03:43:26;10.87;;;5.50;;
12554;SDS011;6343;50.868;4.700;2023-02-28T03:45:53;7.43;;;4.97;;
12554;SDS011;6343;50.868;4.700;2023-02-28T03:48:24;10.80;;;5.50;;
12554;SDS011;6343;50.868;4.700;2023-02-28T03:50:55;7.53;;;4.93;;
12554;SDS011;6343;50.868;4.700;2023-02-28T03:55:55;8.30;;;5.90;;
12554;SDS011;6343;50.868;4.700;2023-02-28T04:01:00;12.00;;;6.23;;
12554;SDS011;6343;50.868;4.700;2023-02-28T04:03:36;9.87;;;5.50;;
12554;SDS011;6343;50.868;4.700;2023-02-28T04:06:02;7.83;;;5.70;;
12554;SDS011;6343;50.868;4.700;2023-02-28T04:08:29;13.53;;;5.93;;
12554;SDS011;6343;50.868;4.700;2023-02-28T04:10:58;8.40;;;5.63;;
12554;SDS011;6343;50.868;4.700;2023-02-28T04:13:26;11.00;;;6.40;;
12554;SDS011;6343;50.868;4.700;2023-02-28T04:15:52;9.60;;;6.37;;
12554;SDS011;6343;50.868;4.700;2023-02-28T04:18:19;10.47;;;6.70;;
12554;SDS011;6343;50.868;4.700;2023-02-28T04:20:45;9.67;;;5.90;;
12554;SDS011;6343;50.868;4.700;2023-02-28T04:23:11;10.77;;;5.90;;
12554;SDS011;6343;50.868;4.700;2023-02-28T04:25:37;12.63;;;6.37;;
12554;SDS011;6343;50.868;4.700;2023-02-28T04:28:05;12.10;;;6.13;;
12554;SDS011;6343;50.868;4.700;2023-02-28T04:30:31;9.40;;;6.20;;
12554;SDS011;6343;50.868;4.700;2023-02-28T04:32:58;7.43;;;5.97;;
12554;SDS011;6343;50.868;4.700;2023-02-28T04:35:24;8.50;;;6.37;;
12554;SDS011;6343;50.868;4.700;2023-02-28T04:37:50;8.67;;;5.43;;
12554;SDS011;6343;50.868;4.700;2023-02-28T04:40:16;10.37;;;6.13;;
12554;SDS011;6343;50.868;4.700;2023-02-28T04:42:42;14.83;;;6.67;;
12554;SDS011;6343;50.868;4.700;2023-02-28T04:45:08;13.23;;;6.17;;
12554;SDS011;6343;50.868;4.700;2023-02-28T04:47:35;10.17;;;6.60;;
12554;SDS011;6343;50.868;4.700;2023-02-28T04:50:02;10.57;;;6.70;;
12554;SDS011;6343;50.868;4.700;2023-02-28T04:52:28;10.97;;;7.13;;
12554;SDS011;6343;50.868;4.700;2023-02-28T04:54:55;11.77;;;6.90;;
12554;SDS011;6343;50.868;4.700;2023-02-28T04:57:21;12.80;;;6.90;;
12554;SDS011;6343;50.868;4.700;2023-02-28T04:59:47;9.03;;;6.27;;
12554;SDS011;6343;50.868;4.700;2023-02-28T05:02:13;9.33;;;6.53;;
12554;SDS011;6343;50.868;4.700;2023-02-28T05:04:39;10.77;;;7.30;;
12554;SDS011;6343;50.868;4.700;2023-02-28T05:07:05;11.40;;;7.10;;
12554;SDS011;6343;50.868;4.700;2023-02-28T05:09:31;13.00;;;6.17;;
12554;SDS011;6343;50.868;4.700;2023-02-28T05:11:58;11.67;;;6.80;;
12554;SDS011;6343;50.868;4.700;2023-02-28T05:14:24;12.03;;;7.00;;
12554;SDS011;6343;50.868;4.700;2023-02-28T05:16:50;13.93;;;6.90;;
12554;SDS011;6343;50.868;4.700;2023-02-28T05:19:16;13.50;;;7.13;;
12554;SDS011;6343;50.868;4.700;2023-02-28T05:21:53;8.73;;;6.30;;
12554;SDS011;6343;50.868;4.700;2023-02-28T05:24:19;9.23;;;6.30;;
12554;SDS011;6343;50.868;4.700;2023-02-28T05:26:48;10.83;;;6.80;;
12554;SDS011;6343;50.868;4.700;2023-02-28T05:29:15;11.97;;;6.50;;
12554;SDS011;6343;50.868;4.700;2023-02-28T05:31:41;11.70;;;6.13;;
12554;SDS011;6343;50.868;4.700;2023-02-28T05:34:07;11.63;;;6.73;;
12554;SDS011;6343;50.868;4.700;2023-02-28T05:36:36;12.27;;;6.43;;
12554;SDS011;6343;50.868;4.700;2023-02-28T05:39:02;10.50;;;6.27;;
12554;SDS011;6343;50.868;4.700;2023-02-28T05:41:29;12.60;;;6.37;;
12554;SDS011;6343;50.868;4.700;2023-02-28T05:43:55;19.10;;;7.60;;
12554;SDS011;6343;50.868;4.700;2023-02-28T05:46:21;11.20;;;6.53;;
12554;SDS011;6343;50.868;4.700;2023-02-28T05:48:47;11.27;;;6.90;;
12554;SDS011;6343;50.868;4.700;2023-02-28T05:51:14;11.97;;;6.97;;
12554;SDS011;6343;50.868;4.700;2023-02-28T05:53:40;12.70;;;7.17;;
12554;SDS011;6343;50.868;4.700;2023-02-28T05:56:06;11.90;;;6.93;;
12554;SDS011;6343;50.868;4.700;2023-02-28T05:58:32;10.30;;;7.40;;
12554;SDS011;6343;50.868;4.700;2023-02-28T06:01:00;14.37;;;7.47;;
12554;SDS011;6343;50.868;4.700;2023-02-28T06:03:26;18.07;;;8.20;;
12554;SDS011;6343;50.868;4.700;2023-02-28T06:05:52;13.30;;;6.73;;
12554;SDS011;6343;50.868;4.700;2023-02-28T06:08:18;13.87;;;7.23;;
12554;SDS011;6343;50.868;4.700;2023-02-28T06:10:44;13.30;;;7.97;;
12554;SDS011;6343;50.868;4.700;2023-02-28T06:13:10;10.40;;;7.13;;
12554;SDS011;6343;50.868;4.700;2023-02-28T06:15:37;12.60;;;6.80;;
12554;SDS011;6343;50.868;4.700;2023-02-28T06:18:04;13.00;;;7.20;;
12554;SDS011;6343;50.868;4.700;2023-02-28T06:20:30;10.60;;;6.67;;
12554;SDS011;6343;50.868;4.700;2023-02-28T06:22:57;11.33;;;6.80;;
12554;SDS011;6343;50.868;4.700;2023-02-28T06:25:26;9.97;;;6.90;;
12554;SDS011;6343;50.868;4.700;2023-02-28T06:27:52;10.33;;;6.93;;
12554;SDS011;6343;50.868;4.700;2023-02-28T06:30:19;14.03;;;7.73;;
12554;SDS011;6343;50.868;4.700;2023-02-28T06:32:51;11.47;;;7.30;;
12554;SDS011;6343;50.868;4.700;2023-02-28T06:35:17;9.67;;;6.63;;
12554;SDS011;6343;50.868;4.700;2023-02-28T06:37:43;10.00;;;6.40;;
12554;SDS011;6343;50.868;4.700;2023-02-28T06:40:10;10.83;;;7.10;;
12554;SDS011;6343;50.868;4.700;2023-02-28T06:42:38;22.17;;;7.73;;
12554;SDS011;6343;50.868;4.700;2023-02-28T06:45:04;13.50;;;7.27;;
12554;SDS011;6343;50.868;4.700;2023-02-28T06:47:34;13.93;;;7.33;;
12554;SDS011;6343;50.868;4.700;2023-02-28T06:50:01;9.33;;;6.73;;
12554;SDS011;6343;50.868;4.700;2023-02-28T06:52:27;8.67;;;6.97;;
12554;SDS011;6343;50.868;4.700;2023-02-28T06:54:53;12.50;;;7.07;;
12554;SDS011;6343;50.868;4.700;2023-02-28T06:57:28;9.80;;;6.57;;
12554;SDS011;6343;50.868;4.700;2023-02-28T07:00:00;16.90;;;6.53;;
12554;SDS011;6343;50.868;4.700;2023-02-28T07:02:28;13.87;;;6.63;;
12554;SDS011;6343;50.868;4.700;2023-02-28T07:04:54;13.53;;;7.33;;
12554;SDS011;6343;50.868;4.700;2023-02-28T07:07:20;14.00;;;6.53;;
12554;SDS011;6343;50.868;4.700;2023-02-28T07:09:46;17.53;;;7.53;;
12554;SDS011;6343;50.868;4.700;2023-02-28T07:12:12;17.50;;;9.10;;
12554;SDS011;6343;50.868;4.700;2023-02-28T07:14:38;13.73;;;7.40;;
12554;SDS011;6343;50.868;4.700;2023-02-28T07:17:06;12.30;;;7.17;;
12554;SDS011;6343;50.868;4.700;2023-02-28T07:19:32;13.13;;;6.80;;
12554;SDS011;6343;50.868;4.700;2023-02-28T07:21:58;10.13;;;7.07;;
12554;SDS011;6343;50.868;4.700;2023-02-28T07:24:24;9.80;;;6.80;;
12554;SDS011;6343;50.868;4.700;2023-02-28T07:26:53;10.70;;;6.87;;
12554;SDS011;6343;50.868;4.700;2023-02-28T07:29:19;23.73;;;7.33;;
12554;SDS011;6343;50.868;4.700;2023-02-28T07:31:45;10.40;;;6.90;;
12554;SDS011;6343;50.868;4.700;2023-02-28T07:34:11;15.87;;;6.80;;
12554;SDS011;6343;50.868;4.700;2023-02-28T07:36:38;11.20;;;6.93;;
12554;SDS011;6343;50.868;4.700;2023-02-28T07:39:04;11.50;;;7.23;;
12554;SDS011;6343;50.868;4.700;2023-02-28T07:41:30;11.03;;;6.50;;
12554;SDS011;6343;50.868;4.700;2023-02-28T07:43:59;11.30;;;5.93;;
12554;SDS011;6343;50.868;4.700;2023-02-28T07:46:25;10.90;;;6.17;;
12554;SDS011;6343;50.868;4.700;2023-02-28T07:48:51;9.93;;;5.90;;
12554;SDS011;6343;50.868;4.700;2023-02-28T07:51:19;10.67;;;6.10;;
12554;SDS011;6343;50.868;4.700;2023-02-28T07:53:45;12.63;;;5.93;;
12554;SDS011;6343;50.868;4.700;2023-02-28T07:56:11;18.17;;;6.00;;
12554;SDS011;6343;50.868;4.700;2023-02-28T07:58:38;11.17;;;6.07;;
12554;SDS011;6343;50.868;4.700;2023-02-28T08:01:04;8.43;;;5.43;;
12554;SDS011;6343;50.868;4.700;2023-02-28T08:03:31;63.57;;;9.30;;
12554;SDS011;6343;50.868;4.700;2023-02-28T08:05:57;9.70;;;5.87;;
12554;SDS011;6343;50.868;4.700;2023-02-28T08:08:23;9.63;;;6.00;;
12554;SDS011;6343;50.868;4.700;2023-02-28T08:10:57;9.70;;;5.17;;
12554;SDS011;6343;50.868;4.700;2023-02-28T08:13:23;7.57;;;4.90;;
12554;SDS011;6343;50.868;4.700;2023-02-28T08:15:49;7.90;;;4.73;;
12554;SDS011;6343;50.868;4.700;2023-02-28T08:18:15;8.73;;;4.60;;
12554;SDS011;6343;50.868;4.700;2023-02-28T08:20:41;9.60;;;5.33;;
12554;SDS011;6343;50.868;4.700;2023-02-28T08:23:07;6.30;;;4.57;;
12554;SDS011;6343;50.868;4.700;2023-02-28T08:25:34;11.03;;;5.03;;
12554;SDS011;6343;50.868;4.700;2023-02-28T08:28:00;9.83;;;4.53;;
12554;SDS011;6343;50.868;4.700;2023-02-28T08:30:26;5.77;;;4.37;;
12554;SDS011;6343;50.868;4.700;2023-02-28T08:32:52;7.97;;;4.40;;
12554;SDS011;6343;50.868;4.700;2023-02-28T08:35:18;6.00;;;4.40;;
12554;SDS011;6343;50.868;4.700;2023-02-28T08:37:44;8.17;;;3.97;;
12554;SDS011;6343;50.868;4.700;2023-02-28T08:40:10;6.13;;;4.27;;
12554;SDS011;6343;50.868;4.700;2023-02-28T08:42:43;8.07;;;4.40;;
12554;SDS011;6343;50.868;4.700;2023-02-28T08:45:09;6.43;;;4.03;;
12554;SDS011;6343;50.868;4.700;2023-02-28T08:47:35;9.50;;;4.40;;
12554;SDS011;6343;50.868;4.700;2023-02-28T08:50:02;5.17;;;4.20;;
12554;SDS011;6343;50.868;4.700;2023-02-28T08:52:28;14.13;;;4.20;;
12554;SDS011;6343;50.868;4.700;2023-02-28T08:54:54;9.67;;;4.27;;
12554;SDS011;6343;50.868;4.700;2023-02-28T08:57:20;7.40;;;4.43;;
12554;SDS011;6343;50.868;4.700;2023-02-28T08:59:46;6.17;;;4.10;;
12554;SDS011;6343;50.868;4.700;2023-02-28T09:02:13;7.67;;;4.03;;
12554;SDS011;6343;50.868;4.700;2023-02-28T09:04:39;5.83;;;3.67;;
12554;SDS011;6343;50.868;4.700;2023-02-28T09:07:06;4.10;;;2.70;;
12554;SDS011;6343;50.868;4.700;2023-02-28T09:09:32;7.20;;;3.97;;
12554;SDS011;6343;50.868;4.700;2023-02-28T09:11:58;4.67;;;3.40;;
12554;SDS011;6343;50.868;4.700;2023-02-28T09:14:24;5.00;;;3.50;;
12554;SDS011;6343;50.868;4.700;2023-02-28T09:16:50;11.17;;;3.43;;
12554;SDS011;6343;50.868;4.700;2023-02-28T09:19:16;5.57;;;3.20;;
12554;SDS011;6343;50.868;4.700;2023-02-28T09:21:42;5.63;;;3.50;;
12554;SDS011;6343;50.868;4.700;2023-02-28T09:24:08;10.63;;;4.00;;
12554;SDS011;6343;50.868;4.700;2023-02-28T09:26:37;8.83;;;4.00;;
12554;SDS011;6343;50.868;4.700;2023-02-28T09:29:03;2.97;;;2.60;;
12554;SDS011;6343;50.868;4.700;2023-02-28T09:31:29;5.13;;;3.70;;
12554;SDS011;6343;50.868;4.700;2023-02-28T09:33:57;4.90;;;3.50;;
12554;SDS011;6343;50.868;4.700;2023-02-28T09:36:24;4.27;;;3.13;;
12554;SDS011;6343;50.868;4.700;2023-02-28T09:38:51;9.17;;;3.13;;
12554;SDS011;6343;50.868;4.700;2023-02-28T09:43:45;6.17;;;3.53;;
12554;SDS011;6343;50.868;4.700;2023-02-28T09:48:45;5.53;;;2.50;;
12554;SDS011;6343;50.868;4.700;2023-02-28T09:53:51;4.10;;;2.37;;
12554;SDS011;6343;50.868;4.700;2023-02-28T09:56:26;6.67;;;2.73;;
12554;SDS011;6343;50.868;4.700;2023-02-28T09:58:59;5.70;;;2.53;;
12554;SDS011;6343;50.868;4.700;2023-02-28T10:06:55;6.77;;;2.30;;
12554;SDS011;6343;50.868;4.700;2023-02-28T10:09:24;23.20;;;3.30;;
12554;SDS011;6343;50.868;4.700;2023-02-28T10:11:52;4.40;;;2.70;;
12554;SDS011;6343;50.868;4.700;2023-02-28T10:14:19;4.33;;;2.50;;
12554;SDS011;6343;50.868;4.700;2023-02-28T10:16:47;3.23;;;2.60;;
12554;SDS011;6343;50.868;4.700;2023-02-28T10:21:45;3.87;;;2.50;;
12554;SDS011;6343;50.868;4.700;2023-02-28T10:26:39;3.13;;;2.30;;
12554;SDS011;6343;50.868;4.700;2023-02-28T10:29:09;3.27;;;2.60;;
12554;SDS011;6343;50.868;4.700;2023-02-28T10:31:35;2.67;;;2.00;;
12554;SDS011;6343;50.868;4.700;2023-02-28T10:34:02;4.40;;;2.50;;
12554;SDS011;6343;50.868;4.700;2023-02-28T10:36:29;3.00;;;2.07;;
12554;SDS011;6343;50.868;4.700;2023-02-28T10:38:55;5.63;;;2.37;;
12554;SDS011;6343;50.868;4.700;2023-02-28T10:43:53;3.37;;;1.70;;
12554;SDS011;6343;50.868;4.700;2023-02-28T10:46:37;3.40;;;1.93;;
12554;SDS011;6343;50.868;4.700;2023-02-28T10:49:05;3.50;;;2.03;;
12554;SDS011;6343;50.868;4.700;2023-02-28T10:51:36;3.17;;;1.90;;
12554;SDS011;6343;50.868;4.700;2023-02-28T10:54:03;5.37;;;2.20;;
12554;SDS011;6343;50.868;4.700;2023-02-28T10:56:30;4.03;;;2.40;;
12554;SDS011;6343;50.868;4.700;2023-02-28T11:01:25;2.40;;;2.07;;
12554;SDS011;6343;50.868;4.700;2023-02-28T11:04:00;3.03;;;2.30;;
12554;SDS011;6343;50.868;4.700;2023-02-28T11:06:28;3.83;;;2.30;;
12554;SDS011;6343;50.868;4.700;2023-02-28T11:08:59;1.97;;;1.77;;
12554;SDS011;6343;50.868;4.700;2023-02-28T11:11:27;3.63;;;2.40;;
12554;SDS011;6343;50.868;4.700;2023-02-28T11:13:55;5.20;;;2.33;;
12554;SDS011;6343;50.868;4.700;2023-02-28T11:16:21;2.80;;;1.90;;
12554;SDS011;6343;50.868;4.700;2023-02-28T11:18:56;3.60;;;2.13;;
12554;SDS011;6343;50.868;4.700;2023-02-28T11:21:32;3.80;;;1.90;;
12554;SDS011;6343;50.868;4.700;2023-02-28T11:24:04;7.00;;;3.03;;
12554;SDS011;6343;50.868;4.700;2023-02-28T11:26:34;3.23;;;2.00;;
12554;SDS011;6343;50.868;4.700;2023-02-28T11:29:08;2.90;;;1.73;;
12554;SDS011;6343;50.868;4.700;2023-02-28T11:31:34;2.43;;;1.93;;
12554;SDS011;6343;50.868;4.700;2023-02-28T11:34:00;4.83;;;1.87;;
12554;SDS011;6343;50.868;4.700;2023-02-28T11:36:28;5.00;;;2.20;;
12554;SDS011;6343;50.868;4.700;2023-02-28T11:38:56;3.27;;;1.90;;
12554;SDS011;6343;50.868;4.700;2023-02-28T11:43:58;15.03;;;2.90;;
12554;SDS011;6343;50.868;4.700;2023-02-28T12:07:24;3.07;;;2.10;;
12554;SDS011;6343;50.868;4.700;2023-02-28T12:10:03;2.90;;;2.10;;
12554;SDS011;6343;50.868;4.700;2023-02-28T12:18:01;6.70;;;2.60;;
12554;SDS011;6343;50.868;4.700;2023-02-28T12:20:34;3.77;;;2.30;;
12554;SDS011;6343;50.868;4.700;2023-02-28T12:23:21;4.80;;;2.10;;
12554;SDS011;6343;50.868;4.700;2023-02-28T12:28:42;2.97;;;2.10;;
12554;SDS011;6343;50.868;4.700;2023-02-28T12:31:17;3.13;;;2.10;;
12554;SDS011;6343;50.868;4.700;2023-02-28T12:33:46;2.80;;;1.93;;
12554;SDS011;6343;50.868;4.700;2023-02-28T12:36:14;2.40;;;1.80;;
12554;SDS011;6343;50.868;4.700;2023-02-28T12:38:45;2.13;;;1.90;;
12554;SDS011;6343;50.868;4.700;2023-02-28T12:41:17;9.00;;;2.67;;
12554;SDS011;6343;50.868;4.700;2023-02-28T12:43:50;2.77;;;1.83;;
12554;SDS011;6343;50.868;4.700;2023-02-28T12:46:20;3.80;;;2.30;;
12554;SDS011;6343;50.868;4.700;2023-02-28T12:48:48;4.63;;;2.27;;
12554;SDS011;6343;50.868;4.700;2023-02-28T12:51:16;4.67;;;2.33;;
12554;SDS011;6343;50.868;4.700;2023-02-28T12:56:12;3.17;;;1.90;;
12554;SDS011;6343;50.868;4.700;2023-02-28T13:07:04;2.53;;;2.00;;
12554;SDS011;6343;50.868;4.700;2023-02-28T13:09:32;15.03;;;2.50;;
12554;SDS011;6343;50.868;4.700;2023-02-28T13:11:58;3.67;;;2.23;;
12554;SDS011;6343;50.868;4.700;2023-02-28T13:19:40;3.80;;;2.10;;
12554;SDS011;6343;50.868;4.700;2023-02-28T13:22:51;4.47;;;2.10;;
12554;SDS011;6343;50.868;4.700;2023-02-28T13:24:57;2.93;;;2.10;;
12554;SDS011;6343;50.868;4.700;2023-02-28T13:27:36;9.97;;;2.30;;
12554;SDS011;6343;50.868;4.700;2023-02-28T13:32:51;3.90;;;2.03;;
12554;SDS011;6343;50.868;4.700;2023-02-28T13:35:36;5.87;;;2.30;;
12554;SDS011;6343;50.868;4.700;2023-02-28T13:38:09;3.50;;;1.90;;
12554;SDS011;6343;50.868;4.700;2023-02-28T13:40:38;3.50;;;2.00;;
12554;SDS011;6343;50.868;4.700;2023-02-28T13:43:07;2.87;;;2.03;;
12554;SDS011;6343;50.868;4.700;2023-02-28T13:45:33;4.20;;;2.13;;
12554;SDS011;6343;50.868;4.700;2023-02-28T13:48:26;2.83;;;1.83;;
12554;SDS011;6343;50.868;4.700;2023-02-28T13:50:50;4.50;;;1.90;;
12554;SDS011;6343;50.868;4.700;2023-02-28T13:56:01;3.70;;;2.00;;
12554;SDS011;6343;50.868;4.700;2023-02-28T14:04:47;5.37;;;2.20;;
12554;SDS011;6343;50.868;4.700;2023-02-28T14:06:47;3.90;;;2.63;;
12554;SDS011;6343;50.868;4.700;2023-02-28T14:09:19;3.90;;;2.17;;
12554;SDS011;6343;50.868;4.700;2023-02-28T14:11:48;7.93;;;2.70;;
12554;SDS011;6343;50.868;4.700;2023-02-28T14:14:58;12.73;;;2.27;;
12554;SDS011;6343;50.868;4.700;2023-02-28T14:17:06;4.17;;;2.53;;
12554;SDS011;6343;50.868;4.700;2023-02-28T14:19:33;2.90;;;2.30;;
12554;SDS011;6343;50.868;4.700;2023-02-28T14:25:08;2.93;;;2.23;;
12554;SDS011;6343;50.868;4.700;2023-02-28T14:27:37;4.97;;;2.37;;
12554;SDS011;6343;50.868;4.700;2023-02-28T14:37:57;5.63;;;2.70;;
12554;SDS011;6343;50.868;4.700;2023-02-28T14:40:26;4.37;;;2.67;;
12554;SDS011;6343;50.868;4.700;2023-02-28T14:42:57;3.83;;;2.10;;
12554;SDS011;6343;50.868;4.700;2023-02-28T14:45:24;6.40;;;2.90;;
12554;SDS011;6343;50.868;4.700;2023-02-28T14:47:52;3.10;;;2.23;;
12554;SDS011;6343;50.868;4.700;2023-02-28T14:50:22;5.07;;;2.83;;
12554;SDS011;6343;50.868;4.700;2023-02-28T14:52:53;3.40;;;2.23;;
12554;SDS011;6343;50.868;4.700;2023-02-28T14:55:21;5.53;;;2.53;;
12554;SDS011;6343;50.868;4.700;2023-02-28T14:57:56;7.27;;;2.67;;
12554;SDS011;6343;50.868;4.700;2023-02-28T15:00:24;3.27;;;2.33;;
12554;SDS011;6343;50.868;4.700;2023-02-28T15:02:50;4.53;;;2.70;;
12554;SDS011;6343;50.868;4.700;2023-02-28T15:05:33;4.17;;;2.63;;
12554;SDS011;6343;50.868;4.700;2023-02-28T15:08:01;6.00;;;2.70;;
12554;SDS011;6343;50.868;4.700;2023-02-28T15:10:27;5.37;;;2.50;;
12554;SDS011;6343;50.868;4.700;2023-02-28T15:12:58;3.87;;;2.93;;
12554;SDS011;6343;50.868;4.700;2023-02-28T15:15:44;3.93;;;2.40;;
12554;SDS011;6343;50.868;4.700;2023-02-28T15:18:14;3.77;;;2.60;;
12554;SDS011;6343;50.868;4.700;2023-02-28T15:20:41;3.43;;;2.60;;
12554;SDS011;6343;50.868;4.700;2023-02-28T15:23:08;4.27;;;2.73;;
12554;SDS011;6343;50.868;4.700;2023-02-28T15:25:34;6.47;;;2.77;;
12554;SDS011;6343;50.868;4.700;2023-02-28T15:28:00;3.13;;;2.47;;
12554;SDS011;6343;50.868;4.700;2023-02-28T15:32:44;4.03;;;2.47;;
12554;SDS011;6343;50.868;4.700;2023-02-28T15:35:25;2.63;;;2.40;;
12554;SDS011;6343;50.868;4.700;2023-02-28T15:40:38;4.07;;;2.73;;
12554;SDS011;6343;50.868;4.700;2023-02-28T15:43:11;3.20;;;2.60;;
12554;SDS011;6343;50.868;4.700;2023-02-28T15:48:31;5.27;;;2.80;;
12554;SDS011;6343;50.868;4.700;2023-02-28T15:51:07;4.47;;;2.73;;
12554;SDS011;6343;50.868;4.700;2023-02-28T15:53:50;4.60;;;2.40;;
12554;SDS011;6343;50.868;4.700;2023-02-28T15:56:51;9.20;;;3.07;;
12554;SDS011;6343;50.868;4.700;2023-02-28T15:59:15;3.17;;;2.53;;
12554;SDS011;6343;50.868;4.700;2023-02-28T16:01:42;8.33;;;3.77;;
12554;SDS011;6343;50.868;4.700;2023-02-28T16:04:15;9.10;;;3.43;;
12554;SDS011;6343;50.868;4.700;2023-02-28T16:09:18;5.67;;;2.43;;
12554;SDS011;6343;50.868;4.700;2023-02-28T16:11:48;7.53;;;2.57;;
12554;SDS011;6343;50.868;4.700;2023-02-28T16:14:16;3.33;;;2.47;;
12554;SDS011;6343;50.868;4.700;2023-02-28T16:16:43;3.10;;;2.50;;
12554;SDS011;6343;50.868;4.700;2023-02-28T16:19:10;3.20;;;2.10;;
12554;SDS011;6343;50.868;4.700;2023-02-28T16:21:36;3.30;;;2.83;;
12554;SDS011;6343;50.868;4.700;2023-02-28T16:24:02;4.00;;;2.60;;
12554;SDS011;6343;50.868;4.700;2023-02-28T16:26:28;4.53;;;2.40;;
12554;SDS011;6343;50.868;4.700;2023-02-28T16:28:55;7.07;;;2.30;;
12554;SDS011;6343;50.868;4.700;2023-02-28T16:31:21;5.60;;;2.50;;
12554;SDS011;6343;50.868;4.700;2023-02-28T16:33:47;8.40;;;2.67;;
12554;SDS011;6343;50.868;4.700;2023-02-28T16:36:17;5.13;;;2.50;;
12554;SDS011;6343;50.868;4.700;2023-02-28T16:38:45;4.30;;;2.60;;
12554;SDS011;6343;50.868;4.700;2023-02-28T16:41:12;5.77;;;2.33;;
12554;SDS011;6343;50.868;4.700;2023-02-28T16:43:43;4.93;;;2.60;;
12554;SDS011;6343;50.868;4.700;2023-02-28T16:46:10;3.63;;;2.83;;
12554;SDS011;6343;50.868;4.700;2023-02-28T16:48:37;2.67;;;2.27;;
12554;SDS011;6343;50.868;4.700;2023-02-28T16:51:05;8.37;;;2.43;;
12554;SDS011;6343;50.868;4.700;2023-02-28T16:53:31;5.77;;;2.80;;
12554;SDS011;6343;50.868;4.700;2023-02-28T16:55:57;5.90;;;2.80;;
12554;SDS011;6343;50.868;4.700;2023-02-28T16:58:26;3.10;;;2.57;;
12554;SDS011;6343;50.868;4.700;2023-02-28T17:00:53;3.10;;;2.40;;
12554;SDS011;6343;50.868;4.700;2023-02-28T17:03:23;4.37;;;2.37;;
12554;SDS011;6343;50.868;4.700;2023-02-28T17:05:49;2.97;;;2.60;;
12554;SDS011;6343;50.868;4.700;2023-02-28T17:08:16;4.77;;;2.60;;
12554;SDS011;6343;50.868;4.700;2023-02-28T17:10:42;4.13;;;2.47;;
12554;SDS011;6343;50.868;4.700;2023-02-28T17:13:09;2.97;;;2.30;;
12554;SDS011;6343;50.868;4.700;2023-02-28T17:15:35;6.97;;;2.80;;
12554;SDS011;6343;50.868;4.700;2023-02-28T17:18:02;3.23;;;2.90;;
12554;SDS011;6343;50.868;4.700;2023-02-28T17:20:28;3.23;;;2.60;;
12554;SDS011;6343;50.868;4.700;2023-02-28T17:22:54;4.30;;;2.97;;
12554;SDS011;6343;50.868;4.700;2023-02-28T17:25:22;8.50;;;2.80;;
12554;SDS011;6343;50.868;4.700;2023-02-28T17:27:48;4.73;;;3.07;;
12554;SDS011;6343;50.868;4.700;2023-02-28T17:30:21;4.53;;;2.80;;